Time;durP1;ratioP1;P1;durP2;ratioP2;P2;SDS_P1;SDS_P2;PMS_P1;PMS_P2;Temp;Humidity;BMP_temperature;BMP_pressure;BME280_temperature;BME280_humidity;BME280_pressure;Samples;Min_cycle;Max_cycle;Signal;HPM_P1;HPM_P2
2022/09/19 00:01:45;;;;;;;0.50;0.50;;;;;;;9.93;97.11;95199.06;4383962;32;20196;-65
2022/09/19 00:04:20;;;;;;;0.30;0.30;;;;;;;9.88;97.45;95202.56;4328811;32;20239;-65
2022/09/19 00:06:48;;;;;;;0.23;0.23;;;;;;;10.04;97.34;95195.12;4395043;32;20203;-66
2022/09/19 00:09:16;;;;;;;0.00;0.00;;;;;;;9.92;97.14;95192.19;4363454;32;20226;-65
2022/09/19 00:11:44;;;;;;;0.10;0.10;;;;;;;10.02;97.47;95192.00;4398487;32;20270;-65
2022/09/19 00:14:14;;;;;;;0.37;0.37;;;;;;;9.82;97.79;95190.50;4378788;32;20202;-66
2022/09/19 00:16:42;;;;;;;0.20;0.20;;;;;;;10.06;97.59;95192.19;4358559;32;20209;-66
2022/09/19 00:19:11;;;;;;;0.57;0.57;;;;;;;9.83;97.81;95185.97;4386232;32;20203;-66
2022/09/19 00:21:39;;;;;;;0.67;0.40;;;;;;;9.89;97.59;95190.13;4369253;32;20195;-65
2022/09/19 00:26:55;;;;;;;0.17;0.17;;;;;;;9.88;98.39;95191.19;4358087;32;20253;-65
2022/09/19 00:29:21;;;;;;;0.10;0.10;;;;;;;9.96;97.61;95186.03;4388269;32;20236;-64
2022/09/19 00:31:46;;;;;;;0.27;0.27;;;;;;;9.85;97.64;95189.91;4368155;32;20185;-64
2022/09/19 00:34:15;;;;;;;0.37;0.37;;;;;;;9.94;98.14;95195.34;4368935;32;20192;-64
2022/09/19 00:36:44;;;;;;;6.60;0.57;;;;;;;9.88;98.03;95199.94;4353510;32;20247;-64
2022/09/19 00:39:14;;;;;;;0.30;0.17;;;;;;;9.93;98.89;95196.41;4389847;32;20316;-64
2022/09/19 00:41:40;;;;;;;0.00;0.00;;;;;;;9.89;98.37;95198.06;4407028;32;20212;-65
2022/09/19 00:44:24;;;;;;;0.10;0.10;;;;;;;10.05;98.65;95204.66;4362526;32;20207;-66
2022/09/19 00:46:59;;;;;;;0.13;0.13;;;;;;;10.07;98.76;95191.13;4376242;32;20211;-65
2022/09/19 00:49:29;;;;;;;0.20;0.20;;;;;;;10.00;98.08;95202.09;4371827;32;20180;-65
2022/09/19 00:52:00;;;;;;;0.23;0.23;;;;;;;10.07;98.55;95202.50;4393615;32;20185;-65
2022/09/19 00:54:35;;;;;;;0.57;0.57;;;;;;;10.07;99.52;95199.84;4352381;32;20184;-65
2022/09/19 00:57:03;;;;;;;0.40;0.40;;;;;;;9.85;100.00;95199.72;4375546;32;20206;-65
2022/09/19 00:59:36;;;;;;;0.10;0.10;;;;;;;10.01;100.00;95206.31;4390887;32;20199;-65
2022/09/19 01:02:04;;;;;;;0.10;0.10;;;;;;;9.93;100.00;95207.00;4395629;32;20194;-65
2022/09/19 01:04:32;;;;;;;0.80;0.80;;;;;;;10.04;100.00;95211.03;4399316;32;20196;-65
2022/09/19 01:07:35;;;;;;;0.20;0.20;;;;;;;9.94;99.79;95208.59;4376950;32;20176;-65
2022/09/19 01:10:52;;;;;;;0.20;0.20;;;;;;;9.88;100.00;95204.44;4384273;32;20184;-64
2022/09/19 01:13:38;;;;;;;0.30;0.30;;;;;;;9.83;100.00;95215.91;4310532;32;20198;-65
2022/09/19 01:16:16;;;;;;;0.33;0.30;;;;;;;9.89;99.86;95203.38;4313522;33;20307;-65
2022/09/19 01:18:49;;;;;;;0.20;0.20;;;;;;;9.87;100.00;95202.88;4310086;32;20293;-64
2022/09/19 01:21:41;;;;;;;0.10;0.10;;;;;;;9.91;100.00;95199.34;4268254;33;20190;-68
2022/09/19 01:24:28;;;;;;;0.27;0.27;;;;;;;9.86;100.00;95204.72;4318533;33;20244;-65
2022/09/19 01:27:26;;;;;;;0.10;0.10;;;;;;;9.87;100.00;95213.47;4311434;32;20244;-64
2022/09/19 01:30:09;;;;;;;0.40;0.40;;;;;;;10.01;99.18;95208.97;4302352;32;20240;-65
2022/09/19 01:32:59;;;;;;;0.00;0.00;;;;;;;10.03;99.02;95217.41;4370227;32;20180;-64
2022/09/19 01:35:31;;;;;;;0.00;0.00;;;;;;;9.91;99.23;95217.91;4370894;32;20185;-64
2022/09/19 01:38:11;;;;;;;0.10;0.10;;;;;;;9.70;97.26;95232.56;4386879;32;20188;-65
2022/09/19 01:40:37;;;;;;;0.10;0.10;;;;;;;9.38;97.02;95254.47;4379445;32;20180;-65
2022/09/19 01:43:06;;;;;;;0.00;0.00;;;;;;;9.09;96.49;95249.34;4389007;32;20400;-65
2022/09/19 01:45:36;;;;;;;0.03;0.03;;;;;;;9.07;96.60;95255.97;4394038;32;20284;-64
2022/09/19 01:48:23;;;;;;;0.00;0.00;;;;;;;8.92;95.64;95257.75;4404045;32;20282;-65
2022/09/19 01:51:16;;;;;;;0.07;0.07;;;;;;;8.86;97.20;95273.97;4379665;32;20280;-64
2022/09/19 01:53:54;;;;;;;0.00;0.00;;;;;;;8.83;96.05;95253.37;4370811;32;20343;-65
2022/09/19 01:56:28;;;;;;;0.00;0.00;;;;;;;8.64;96.57;95255.19;4352144;32;20279;-64
2022/09/19 01:59:15;;;;;;;0.00;0.00;;;;;;;8.71;96.26;95261.72;4384489;32;20322;-64
2022/09/19 02:02:19;;;;;;;0.20;0.20;;;;;;;8.63;97.46;95262.34;4329971;32;20284;-64
2022/09/19 02:05:04;;;;;;;0.00;0.00;;;;;;;8.69;98.41;95257.78;4370025;32;20283;-64
2022/09/19 02:08:15;;;;;;;0.00;0.00;;;;;;;8.83;96.90;95267.37;4377373;32;20287;-64
2022/09/19 02:10:50;;;;;;;0.00;0.00;;;;;;;8.86;97.19;95269.47;4384968;32;20291;-66
2022/09/19 02:13:21;;;;;;;0.00;0.00;;;;;;;8.74;97.01;95271.72;4375560;32;20271;-64
2022/09/19 02:15:53;;;;;;;0.00;0.00;;;;;;;8.64;97.55;95271.06;4377587;32;20284;-64
2022/09/19 02:18:38;;;;;;;0.10;0.10;;;;;;;8.66;97.86;95271.56;4356399;32;20371;-65
2022/09/19 02:21:08;;;;;;;0.00;0.00;;;;;;;8.81;98.34;95272.16;4357123;32;20392;-64
2022/09/19 02:23:47;;;;;;;0.00;0.00;;;;;;;8.78;98.89;95278.03;4386068;32;20326;-64
2022/09/19 02:26:16;;;;;;;0.10;0.10;;;;;;;8.72;99.89;95281.03;4355529;32;20285;-65
2022/09/19 02:28:44;;;;;;;0.00;0.00;;;;;;;8.76;100.00;95274.87;4390165;32;20327;-65
2022/09/19 02:31:12;;;;;;;0.00;0.00;;;;;;;8.79;98.95;95276.94;4362770;32;20303;-65
2022/09/19 02:33:46;;;;;;;0.00;0.00;;;;;;;8.81;99.37;95277.47;4381491;32;20306;-64
2022/09/19 02:36:20;;;;;;;0.00;0.00;;;;;;;8.76;98.79;95280.16;4390348;32;20294;-64
2022/09/19 02:39:00;;;;;;;0.10;0.10;;;;;;;8.92;99.07;95292.16;4404581;32;20271;-65
2022/09/19 02:41:56;;;;;;;0.00;0.00;;;;;;;8.96;99.14;95290.50;4365649;32;20362;-65
2022/09/19 02:44:37;;;;;;;0.00;0.00;;;;;;;9.08;98.49;95286.66;4351069;32;20255;-65
2022/09/19 02:47:20;;;;;;;0.00;0.00;;;;;;;9.19;97.93;95294.19;4383501;32;20374;-65
2022/09/19 02:49:52;;;;;;;0.10;0.10;;;;;;;9.22;97.71;95293.63;4386548;32;20290;-65
2022/09/19 02:52:26;;;;;;;0.00;0.00;;;;;;;8.95;97.99;95304.00;4389342;32;20287;-65
2022/09/19 02:54:59;;;;;;;0.00;0.00;;;;;;;8.92;98.92;95309.88;4383343;32;20294;-65
2022/09/19 02:57:29;;;;;;;0.00;0.00;;;;;;;9.00;99.75;95305.81;4356630;32;20277;-64
2022/09/19 02:59:58;;;;;;;0.27;0.20;;;;;;;9.03;97.94;95305.25;4381987;32;20267;-65
2022/09/19 03:02:41;;;;;;;0.20;0.20;;;;;;;9.18;97.87;95303.19;4393807;32;20265;-65
2022/09/19 03:05:19;;;;;;;0.10;0.10;;;;;;;9.19;97.15;95315.34;4392341;32;20276;-65
2022/09/19 03:07:53;;;;;;;0.37;0.33;;;;;;;9.06;97.03;95309.97;4398754;32;20279;-65
2022/09/19 03:10:31;;;;;;;0.00;0.00;;;;;;;9.24;97.04;95325.09;4384944;32;20287;-66
2022/09/19 03:13:09;;;;;;;0.00;0.00;;;;;;;9.16;96.91;95331.00;4417979;32;20321;-64
2022/09/19 03:15:51;;;;;;;0.47;0.47;;;;;;;9.04;97.22;95325.34;4371393;32;20290;-64
2022/09/19 03:18:21;;;;;;;0.00;0.00;;;;;;;9.13;96.92;95323.66;4386244;32;20287;-66
2022/09/19 03:20:55;;;;;;;0.00;0.00;;;;;;;9.06;97.14;95323.19;4412005;32;20298;-66
2022/09/19 03:23:30;;;;;;;0.00;0.00;;;;;;;9.02;97.84;95322.19;4375984;32;20407;-64
2022/09/19 03:25:56;;;;;;;0.20;0.20;;;;;;;8.95;97.76;95325.16;4400539;32;20192;-64
2022/09/19 03:28:22;;;;;;;0.00;0.00;;;;;;;8.96;97.70;95322.25;4397028;32;20275;-64
2022/09/19 03:30:48;;;;;;;0.00;0.00;;;;;;;8.75;98.03;95326.19;4387596;32;20280;-65
2022/09/19 03:33:17;;;;;;;0.00;0.00;;;;;;;8.82;97.92;95336.44;4398536;32;20298;-66
2022/09/19 03:35:47;;;;;;;0.00;0.00;;;;;;;8.91;97.97;95334.75;4351579;32;20195;-64
2022/09/19 03:38:13;;;;;;;0.10;0.10;;;;;;;8.66;98.62;95338.47;4363767;32;20317;-65
2022/09/19 03:40:39;;;;;;;0.10;0.10;;;;;;;8.68;97.91;95341.63;4382647;32;20281;-66
2022/09/19 03:43:05;;;;;;;0.00;0.00;;;;;;;8.70;98.17;95344.78;4370612;32;20176;-64
2022/09/19 03:45:30;;;;;;;0.00;0.00;;;;;;;8.63;98.35;95349.59;4382117;32;20202;-64
2022/09/19 03:47:57;;;;;;;0.20;0.20;;;;;;;8.60;97.77;95353.59;4394456;32;20276;-63
2022/09/19 03:50:24;;;;;;;3.00;0.40;;;;;;;8.72;97.33;95353.22;4394858;32;20204;-63
2022/09/19 03:52:51;;;;;;;0.00;0.00;;;;;;;8.73;97.13;95354.75;4385185;32;20207;-64
2022/09/19 03:55:17;;;;;;;1.70;0.40;;;;;;;8.57;97.61;95361.28;4389861;32;20195;-64
2022/09/19 03:57:42;;;;;;;0.00;0.00;;;;;;;8.57;97.52;95366.56;4391434;32;20341;-65
2022/09/19 04:00:08;;;;;;;0.10;0.10;;;;;;;8.71;97.16;95370.16;4387406;32;26308;-64
2022/09/19 04:02:34;;;;;;;0.00;0.00;;;;;;;8.54;98.28;95369.75;4370741;32;20259;-64
2022/09/19 04:05:01;;;;;;;0.00;0.00;;;;;;;8.57;97.72;95372.66;4371586;32;20200;-64
2022/09/19 04:07:27;;;;;;;0.23;0.23;;;;;;;8.41;97.42;95378.34;4367760;32;20293;-64
2022/09/19 04:09:57;;;;;;;0.00;0.00;;;;;;;8.56;97.06;95379.00;4361243;32;20302;-64
2022/09/19 04:12:26;;;;;;;0.20;0.20;;;;;;;8.48;97.46;95398.13;4388992;32;20184;-64
2022/09/19 04:14:53;;;;;;;0.00;0.00;;;;;;;8.62;97.31;95398.25;4394720;32;20297;-63
2022/09/19 04:17:18;;;;;;;0.03;0.03;;;;;;;8.43;97.00;95395.50;4364863;32;20331;-63
2022/09/19 04:19:44;;;;;;;0.23;0.23;;;;;;;8.47;97.03;95395.75;4362387;32;20285;-64
2022/09/19 04:22:09;;;;;;;0.00;0.00;;;;;;;8.56;96.67;95394.06;4389838;32;20236;-64
2022/09/19 04:24:40;;;;;;;0.00;0.00;;;;;;;8.37;96.92;95401.09;4395229;32;20254;-64
2022/09/19 04:27:08;;;;;;;0.00;0.00;;;;;;;8.41;97.28;95397.66;4393099;32;20185;-64
2022/09/19 04:29:38;;;;;;;0.00;0.00;;;;;;;8.39;96.85;95406.91;4384082;32;20825;-64
2022/09/19 04:32:03;;;;;;;0.00;0.00;;;;;;;8.27;96.44;95413.31;4365113;32;20285;-64
2022/09/19 04:34:30;;;;;;;0.00;0.00;;;;;;;8.24;97.30;95416.50;4367114;32;20284;-64
2022/09/19 04:36:57;;;;;;;0.10;0.10;;;;;;;8.27;97.06;95417.81;4386339;32;20294;-63
2022/09/19 04:39:24;;;;;;;0.10;0.10;;;;;;;8.39;98.00;95417.47;4394806;32;20188;-63
2022/09/19 04:41:52;;;;;;;0.00;0.00;;;;;;;8.39;96.45;95418.28;4386523;32;20384;-63
2022/09/19 04:44:21;;;;;;;0.00;0.00;;;;;;;8.38;95.95;95423.84;4390427;32;20301;-65
2022/09/19 04:46:49;;;;;;;0.20;0.20;;;;;;;8.32;96.24;95430.19;4331181;32;20339;-64
2022/09/19 04:49:18;;;;;;;0.17;0.17;;;;;;;8.14;96.76;95427.16;4340528;32;20363;-64
2022/09/19 04:51:45;;;;;;;0.00;0.00;;;;;;;8.10;97.29;95435.91;4390711;32;20351;-64
2022/09/19 04:54:11;;;;;;;0.13;0.13;;;;;;;8.08;97.75;95435.41;4393976;32;20355;-64
2022/09/19 04:56:38;;;;;;;0.17;0.17;;;;;;;8.11;97.08;95432.97;4372364;32;20295;-65
2022/09/19 04:59:03;;;;;;;0.00;0.00;;;;;;;8.10;97.30;95439.34;4403021;32;20417;-65
2022/09/19 05:01:30;;;;;;;0.00;0.00;;;;;;;8.01;97.78;95435.69;4397052;32;20295;-65
2022/09/19 05:03:57;;;;;;;1.20;0.47;;;;;;;8.09;97.43;95439.62;4379448;32;20212;-64
2022/09/19 05:06:28;;;;;;;1.33;0.23;;;;;;;7.99;97.04;95440.47;4349618;32;20293;-65
2022/09/19 05:09:04;;;;;;;0.20;0.20;;;;;;;8.05;97.13;95451.78;4390700;32;20296;-65
2022/09/19 05:11:30;;;;;;;0.37;0.37;;;;;;;7.93;97.51;95452.09;4401324;32;20310;-65
2022/09/19 05:13:56;;;;;;;0.30;0.30;;;;;;;8.02;97.32;95465.53;4352361;32;20289;-64
2022/09/19 05:16:22;;;;;;;0.00;0.00;;;;;;;7.96;97.32;95456.84;4359743;32;20362;-64
2022/09/19 05:18:49;;;;;;;0.20;0.20;;;;;;;8.01;97.27;95459.47;4403676;32;20196;-64
2022/09/19 05:21:16;;;;;;;0.30;0.30;;;;;;;8.15;96.59;95457.78;4394562;32;20346;-66
2022/09/19 05:23:41;;;;;;;0.53;0.43;;;;;;;8.19;96.67;95465.97;4390418;32;20286;-64
2022/09/19 05:26:17;;;;;;;0.13;0.13;;;;;;;8.08;96.61;95467.88;4386132;32;20294;-65
2022/09/19 05:28:45;;;;;;;0.73;0.57;;;;;;;8.14;96.33;95482.63;4367379;32;20324;-64
2022/09/19 05:31:12;;;;;;;0.10;0.10;;;;;;;8.04;96.50;95480.06;4390599;32;20334;-64
2022/09/19 05:33:40;;;;;;;0.00;0.00;;;;;;;8.20;95.93;95483.41;4397138;32;20369;-66
2022/09/19 05:36:07;;;;;;;0.10;0.10;;;;;;;8.21;95.76;95483.13;4410404;32;20279;-64
2022/09/19 05:38:33;;;;;;;0.07;0.07;;;;;;;8.24;95.39;95485.22;4373560;32;20313;-64
2022/09/19 05:41:01;;;;;;;0.20;0.20;;;;;;;8.13;95.91;95499.53;4359772;32;20276;-64
2022/09/19 05:43:27;;;;;;;0.10;0.10;;;;;;;8.16;95.92;95492.94;4374490;32;20287;-64
2022/09/19 05:45:54;;;;;;;0.07;0.07;;;;;;;8.31;95.73;95492.84;4386364;32;20311;-64
2022/09/19 05:48:21;;;;;;;0.13;0.13;;;;;;;8.30;95.96;95487.84;4363842;32;20280;-64
2022/09/19 05:50:50;;;;;;;0.27;0.27;;;;;;;8.19;95.79;95495.81;4387949;32;20280;-64
2022/09/19 05:56:04;;;;;;;1.37;0.23;;;;;;;8.38;94.65;95496.00;4390243;32;20375;-65
2022/09/19 05:58:35;;;;;;;0.37;0.20;;;;;;;8.33;96.18;95497.88;4384760;32;20275;-64
2022/09/19 06:01:07;;;;;;;0.33;0.33;;;;;;;8.24;95.62;95500.28;4379312;32;20280;-64
2022/09/19 06:03:34;;;;;;;0.90;0.90;;;;;;;8.37;95.21;95507.62;4377469;32;20289;-66
2022/09/19 06:06:00;;;;;;;1.50;1.40;;;;;;;8.28;94.70;95504.75;4400045;32;20351;-57
2022/09/19 06:08:27;;;;;;;1.23;0.43;;;;;;;11.38;100.00;95493.09;4377919;32;20306;-57
2022/09/19 06:10:53;;;;;;;0.87;0.57;;;;;;;12.26;100.00;95499.84;4358984;32;20247;-57
2022/09/19 06:13:21;;;;;;;0.23;0.23;;;;;;;12.45;100.00;95518.38;4343857;32;20250;-57
2022/09/19 06:15:47;;;;;;;4.83;0.63;;;;;;;13.01;92.09;95519.72;4383282;32;20211;-56
2022/09/19 06:18:12;;;;;;;0.37;0.30;;;;;;;13.59;85.78;95526.81;4368720;32;20206;-56
2022/09/19 06:20:40;;;;;;;0.67;0.47;;;;;;;13.66;82.38;95535.97;4401735;32;20184;-57
2022/09/19 06:23:08;;;;;;;1.67;1.00;;;;;;;13.99;81.61;95543.59;4393063;32;20288;-56
2022/09/19 06:25:36;;;;;;;0.30;0.30;;;;;;;14.38;80.18;95546.22;4368241;32;20188;-56
2022/09/19 06:28:10;;;;;;;0.20;0.20;;;;;;;14.32;76.35;95544.81;4376658;32;20222;-57
2022/09/19 06:30:37;;;;;;;3.83;0.57;;;;;;;14.17;77.45;95555.09;4389181;32;20199;-55
2022/09/19 06:33:05;;;;;;;1.00;0.63;;;;;;;14.39;75.62;95557.69;4374861;32;20200;-55
2022/09/19 06:35:32;;;;;;;0.33;0.33;;;;;;;14.43;74.78;95554.09;4368033;32;20199;-56
2022/09/19 06:38:01;;;;;;;1.47;0.80;;;;;;;14.21;71.76;95556.84;4395640;32;20196;-57
2022/09/19 06:40:28;;;;;;;1.00;0.80;;;;;;;14.16;72.26;95565.00;4384423;32;20211;-55
2022/09/19 06:43:02;;;;;;;0.43;0.43;;;;;;;14.27;72.70;95571.63;4389247;32;20181;-56
2022/09/19 06:45:32;;;;;;;0.27;0.23;;;;;;;14.38;72.82;95564.91;4398522;32;20192;-55
2022/09/19 06:48:02;;;;;;;0.57;0.43;;;;;;;14.13;71.31;95570.97;4371322;32;20334;-55
2022/09/19 06:50:28;;;;;;;0.20;0.20;;;;;;;14.23;74.67;95569.88;4395514;32;20184;-57
2022/09/19 06:52:55;;;;;;;2.80;0.87;;;;;;;14.19;73.60;95574.28;4338431;32;20189;-57
2022/09/19 06:55:23;;;;;;;1.07;0.77;;;;;;;14.19;74.30;95574.28;4374438;32;20200;-64
2022/09/19 06:57:58;;;;;;;0.50;0.50;;;;;;;12.45;75.60;95581.44;4392784;32;20193;-63
2022/09/19 07:00:31;;;;;;;0.80;0.57;;;;;;;11.96;78.01;95581.06;4405133;32;20109;-63
2022/09/19 07:03:09;;;;;;;1.60;0.77;;;;;;;11.12;81.67;95579.59;4400118;32;20211;-64
2022/09/19 07:05:38;;;;;;;1.07;0.40;;;;;;;10.31;85.51;95578.88;4375961;32;20349;-66
2022/09/19 07:08:06;;;;;;;2.30;0.50;;;;;;;10.24;86.05;95587.19;4395037;32;20184;-62
2022/09/19 07:10:36;;;;;;;0.00;0.00;;;;;;;9.83;88.87;95584.19;4360773;32;20189;-64
2022/09/19 07:13:05;;;;;;;0.53;0.53;;;;;;;9.77;87.57;95592.47;4353051;32;20210;-63
2022/09/19 07:15:34;;;;;;;0.30;0.30;;;;;;;9.87;89.50;95595.78;4388882;32;20267;-64
2022/09/19 07:18:02;;;;;;;3.53;0.97;;;;;;;9.67;89.77;95601.31;4350516;32;20189;-64
2022/09/19 07:20:29;;;;;;;0.40;0.20;;;;;;;9.62;88.81;95612.72;4371292;32;20211;-62
2022/09/19 07:23:05;;;;;;;0.10;0.10;;;;;;;9.85;89.97;95608.53;4396368;32;20249;-63
2022/09/19 07:25:42;;;;;;;0.20;0.20;;;;;;;9.74;89.59;95616.88;4390189;32;20196;-63
2022/09/19 07:28:15;;;;;;;5.40;0.63;;;;;;;9.69;89.14;95619.56;4339861;32;20181;-62
2022/09/19 07:30:47;;;;;;;0.50;0.30;;;;;;;9.58;89.55;95630.25;4378670;32;20196;-63
2022/09/19 07:33:23;;;;;;;0.60;0.60;;;;;;;9.45;90.60;95636.19;4389954;32;20202;-63
2022/09/19 07:35:53;;;;;;;0.77;0.60;;;;;;;9.66;89.82;95636.81;4384714;32;20196;-63
2022/09/19 07:38:24;;;;;;;0.87;0.30;;;;;;;9.63;90.79;95640.81;4364073;32;20247;-62
2022/09/19 07:40:50;;;;;;;1.03;0.50;;;;;;;9.57;91.08;95652.50;4383343;32;20184;-62
2022/09/19 07:43:17;;;;;;;0.10;0.10;;;;;;;9.70;90.47;95653.72;4393505;32;20180;-63
2022/09/19 07:45:44;;;;;;;0.37;0.37;;;;;;;9.55;89.69;95653.88;4364517;32;20184;-62
2022/09/19 07:48:11;;;;;;;0.23;0.23;;;;;;;9.60;89.73;95659.09;4392311;32;20298;-62
2022/09/19 07:50:36;;;;;;;0.17;0.17;;;;;;;9.89;89.80;95654.59;4351990;32;20188;-63
2022/09/19 07:53:09;;;;;;;0.47;0.30;;;;;;;9.82;90.28;95659.44;4399438;32;20228;-61
2022/09/19 07:55:56;;;;;;;0.20;0.20;;;;;;;9.94;89.46;95648.47;4354154;32;20220;-64
2022/09/19 07:58:24;;;;;;;0.50;0.43;;;;;;;9.95;89.87;95665.94;4367401;32;20224;-63
2022/09/19 08:00:50;;;;;;;1.30;0.77;;;;;;;10.09;88.95;95672.16;4393434;32;20209;-63
2022/09/19 08:03:22;;;;;;;0.87;0.50;;;;;;;10.11;88.59;95670.03;4400009;32;20263;-66
2022/09/19 08:05:52;;;;;;;0.30;0.30;;;;;;;9.94;88.64;95673.13;4387048;32;20208;-63
2022/09/19 08:08:22;;;;;;;0.30;0.30;;;;;;;9.90;89.02;95680.03;4400949;32;20226;-63
2022/09/19 08:10:48;;;;;;;0.10;0.10;;;;;;;10.04;89.31;95680.16;4375357;32;20184;-63
2022/09/19 08:13:17;;;;;;;1.87;0.73;;;;;;;10.09;89.49;95684.63;4388458;32;20202;-61
2022/09/19 08:15:45;;;;;;;1.60;0.70;;;;;;;10.21;88.51;95693.00;4383888;32;20258;-63
2022/09/19 08:18:17;;;;;;;2.47;0.97;;;;;;;10.26;88.39;95696.41;4369694;32;20189;-63
2022/09/19 08:20:44;;;;;;;6.60;3.57;;;;;;;10.29;88.45;95697.69;4402918;32;20255;-56
2022/09/19 08:23:16;;;;;;;0.60;0.60;;;;;;;11.92;100.00;95693.59;4391694;32;20276;-53
2022/09/19 08:25:46;;;;;;;35.00;3.37;;;;;;;12.97;97.02;95694.53;4379156;32;20218;-56
2022/09/19 08:28:16;;;;;;;1.07;0.27;;;;;;;13.71;88.77;95703.81;4393354;32;20200;-53
2022/09/19 08:30:42;;;;;;;0.57;0.57;;;;;;;14.09;81.85;95703.41;4399572;32;20181;-54
2022/09/19 08:33:09;;;;;;;0.33;0.33;;;;;;;14.63;76.04;95698.81;4393691;32;20192;-55
2022/09/19 08:35:37;;;;;;;0.83;0.67;;;;;;;14.81;74.63;95703.09;4387697;32;20207;-51
2022/09/19 08:38:04;;;;;;;0.20;0.20;;;;;;;14.91;72.89;95710.84;4388164;32;20184;-63
2022/09/19 08:40:33;;;;;;;0.23;0.23;;;;;;;13.44;71.63;95716.44;4391300;32;20192;-66
2022/09/19 08:43:31;;;;;;;0.43;0.43;;;;;;;12.49;75.06;95713.56;4400581;32;20184;-64
2022/09/19 08:46:38;;;;;;;0.50;0.50;;;;;;;11.75;78.57;95723.34;4387421;32;20193;-64
2022/09/19 08:49:39;;;;;;;1.03;0.60;;;;;;;11.57;80.55;95727.63;4391788;32;20305;-63
2022/09/19 08:52:14;;;;;;;2.10;0.57;;;;;;;11.04;83.44;95713.75;4393457;32;20180;-65
2022/09/19 08:54:45;;;;;;;0.43;0.43;;;;;;;10.79;84.54;95725.50;4396646;32;20313;-67
2022/09/19 08:57:25;;;;;;;0.43;0.43;;;;;;;10.56;85.61;95715.72;4413060;32;20184;-70
2022/09/19 08:59:56;;;;;;;2.67;0.53;;;;;;;10.79;86.18;95725.50;4400003;32;20184;-64
2022/09/19 09:02:38;;;;;;;0.70;0.47;;;;;;;10.83;85.23;95718.53;4398217;32;20176;-64
2022/09/19 09:05:03;;;;;;;0.30;0.30;;;;;;;10.93;85.29;95729.06;4392889;32;20179;-65
2022/09/19 09:07:45;;;;;;;0.10;0.10;;;;;;;11.01;85.17;95730.28;4390528;32;20300;-64
2022/09/19 09:10:35;;;;;;;0.50;0.50;;;;;;;11.19;84.77;95729.50;4395290;32;20247;-65
2022/09/19 09:13:28;;;;;;;0.30;0.30;;;;;;;11.00;83.49;95731.38;4380742;32;20195;-65
2022/09/19 09:16:05;;;;;;;1.40;0.60;;;;;;;11.08;83.85;95725.41;4390657;32;20173;-65
2022/09/19 09:18:49;;;;;;;1.13;0.53;;;;;;;11.05;84.17;95731.28;4395460;32;20188;-65
2022/09/19 09:21:40;;;;;;;0.20;0.20;;;;;;;10.96;84.65;95735.66;4398130;32;20203;-64
2022/09/19 09:24:16;;;;;;;0.83;0.57;;;;;;;10.98;84.40;95747.56;4356214;32;20238;-66
2022/09/19 09:26:44;;;;;;;0.23;0.23;;;;;;;11.02;84.58;95731.84;4375246;32;20231;-66
2022/09/19 09:29:41;;;;;;;0.10;0.10;;;;;;;11.03;84.53;95723.59;4386801;32;20283;-67
2022/09/19 09:32:07;;;;;;;1.80;0.83;;;;;;;10.96;84.11;95739.09;4384569;32;20180;-66
2022/09/19 09:34:41;;;;;;;0.93;0.40;;;;;;;11.00;83.23;95742.78;4389945;32;20180;-66
2022/09/19 09:37:28;;;;;;;0.43;0.43;;;;;;;11.26;83.38;95734.44;4394959;32;20184;-67
2022/09/19 09:40:00;;;;;;;0.80;0.67;;;;;;;11.21;82.62;95731.88;4389920;32;20202;-66
2022/09/19 09:42:34;;;;;;;0.20;0.20;;;;;;;11.26;82.68;95732.56;4397958;32;20223;-66
2022/09/19 09:45:22;;;;;;;0.23;0.23;;;;;;;11.31;82.23;95734.38;4396177;32;20203;-66
2022/09/19 09:47:56;;;;;;;1.20;0.77;;;;;;;11.21;82.61;95742.50;4397656;32;20275;-67
2022/09/19 09:50:36;;;;;;;0.17;0.17;;;;;;;11.19;82.10;95731.38;4395170;32;20221;-64
2022/09/19 09:53:42;;;;;;;0.50;0.50;;;;;;;11.23;82.45;95729.69;4401559;32;20211;-66
2022/09/19 09:56:35;;;;;;;0.57;0.47;;;;;;;11.12;83.63;95742.34;4382470;32;20203;-66
2022/09/19 10:05:57;;;;;;;0.30;0.30;;;;;;;11.44;81.80;95741.63;4401145;32;20241;-66
2022/09/19 10:08:34;;;;;;;0.77;0.77;;;;;;;11.54;82.23;95744.16;4387241;32;20192;-66
2022/09/19 10:11:40;;;;;;;0.17;0.17;;;;;;;11.82;81.45;95750.41;4392986;32;20263;-66
2022/09/19 10:14:18;;;;;;;0.20;0.20;;;;;;;11.70;79.96;95748.16;4367118;32;20232;-67
2022/09/19 10:16:46;;;;;;;0.97;0.27;;;;;;;11.69;80.62;95737.78;4389120;32;20266;-67
2022/09/19 10:19:25;;;;;;;0.33;0.33;;;;;;;11.86;81.41;95740.75;4392590;32;20204;-66
2022/09/19 10:21:52;;;;;;;0.50;0.40;;;;;;;11.94;80.33;95741.97;4389730;32;20182;-66
2022/09/19 10:24:46;;;;;;;0.20;0.20;;;;;;;12.01;79.24;95734.41;4402275;32;20180;-66
2022/09/19 10:27:31;;;;;;;1.27;0.40;;;;;;;12.26;80.01;95743.81;4399247;32;20275;-67
2022/09/19 10:30:16;;;;;;;0.10;0.10;;;;;;;12.31;79.04;95747.16;4403568;32;20203;-69
2022/09/19 10:32:43;;;;;;;0.10;0.10;;;;;;;12.28;77.40;95746.94;4402761;32;20192;-66
2022/09/19 10:35:30;;;;;;;0.13;0.13;;;;;;;12.28;76.14;95746.94;4388474;32;20207;-66
2022/09/19 10:38:21;;;;;;;0.17;0.17;;;;;;;12.28;76.55;95750.41;4394577;32;20192;-66
2022/09/19 10:40:55;;;;;;;0.80;0.80;;;;;;;12.15;77.00;95745.84;4399442;32;20210;-66
2022/09/19 10:43:22;;;;;;;0.30;0.30;;;;;;;12.32;77.87;95743.41;4390854;32;20215;-66
2022/09/19 10:45:48;;;;;;;0.10;0.10;;;;;;;12.23;77.28;95747.84;4414395;32;20195;-64
2022/09/19 10:48:31;;;;;;;0.00;0.00;;;;;;;12.19;78.62;95746.06;4393137;32;20185;-64
2022/09/19 10:50:59;;;;;;;0.27;0.27;;;;;;;12.16;78.00;95750.09;4387900;32;20189;-65
2022/09/19 10:53:35;;;;;;;0.10;0.10;;;;;;;12.13;78.02;95745.34;4387995;32;20185;-65
2022/09/19 10:56:07;;;;;;;0.40;0.40;;;;;;;12.35;78.54;95750.03;4384983;32;20202;-65
2022/09/19 10:58:39;;;;;;;9.43;0.80;;;;;;;12.45;75.94;95749.06;4393036;32;20202;-65
2022/09/19 11:01:18;;;;;;;6.60;1.10;;;;;;;12.55;76.07;95741.69;4389327;32;20211;-65
2022/09/19 11:04:16;;;;;;;0.17;0.17;;;;;;;12.63;75.54;95742.88;4398905;32;20185;-64
2022/09/19 11:06:58;;;;;;;0.23;0.23;;;;;;;12.52;75.05;95741.47;4389386;32;20222;-64
2022/09/19 11:09:33;;;;;;;0.00;0.00;;;;;;;12.49;75.45;95747.37;4395822;32;20206;-65
2022/09/19 11:12:09;;;;;;;0.43;0.43;;;;;;;12.58;75.74;95750.94;4401495;32;20217;-64
2022/09/19 11:14:37;;;;;;;0.33;0.30;;;;;;;12.52;77.26;95750.25;4391036;32;20215;-64
2022/09/19 11:17:06;;;;;;;5.40;1.17;;;;;;;12.62;76.86;95747.41;4390291;32;20208;-64
2022/09/19 11:19:49;;;;;;;2.27;0.73;;;;;;;12.68;76.19;95745.41;4387337;32;20196;-64
2022/09/19 11:22:36;;;;;;;0.20;0.20;;;;;;;12.73;75.34;95754.09;4406053;32;20183;-65
2022/09/19 11:25:26;;;;;;;0.23;0.23;;;;;;;12.80;75.33;95747.59;4381477;32;20188;-65
2022/09/19 11:28:06;;;;;;;1.40;0.20;;;;;;;12.65;73.87;95754.00;4400357;32;20248;-65
2022/09/19 11:30:41;;;;;;;0.20;0.20;;;;;;;12.56;74.93;95745.12;4396651;32;20175;-65
2022/09/19 11:33:30;;;;;;;0.20;0.20;;;;;;;12.66;75.21;95752.94;4402883;32;20188;-66
2022/09/19 11:36:13;;;;;;;0.13;0.13;;;;;;;12.84;75.20;95752.03;4402117;32;20184;-64
2022/09/19 11:38:53;;;;;;;0.10;0.10;;;;;;;12.63;73.89;95743.66;4407400;32;20222;-65
2022/09/19 11:41:36;;;;;;;0.00;0.00;;;;;;;12.67;74.36;95746.53;4396292;32;20204;-65
2022/09/19 11:44:32;;;;;;;0.30;0.30;;;;;;;12.59;72.97;95747.19;4390376;32;20188;-65
2022/09/19 11:47:14;;;;;;;0.23;0.23;;;;;;;12.50;73.03;95739.09;4396099;32;20188;-65
2022/09/19 11:49:50;;;;;;;2.80;0.47;;;;;;;12.35;74.52;95748.16;4399367;32;20305;-66
2022/09/19 11:53:10;;;;;;;0.17;0.17;;;;;;;12.38;74.13;95746.78;4392376;32;20237;-65
2022/09/19 11:56:00;;;;;;;0.07;0.07;;;;;;;12.60;73.80;95744.25;4328348;32;20316;-64
2022/09/19 11:58:38;;;;;;;0.63;0.43;;;;;;;12.71;73.77;95742.16;4388862;32;20215;-65
2022/09/19 12:01:32;;;;;;;0.30;0.30;;;;;;;12.69;74.34;95741.66;4403273;32;20191;-65
2022/09/19 12:04:26;;;;;;;0.70;0.13;;;;;;;12.83;74.46;95739.81;4392013;32;20253;-65
2022/09/19 12:07:21;;;;;;;0.30;0.30;;;;;;;12.81;72.50;95734.00;4400053;32;20184;-65
2022/09/19 12:09:57;;;;;;;0.20;0.20;;;;;;;12.78;72.36;95731.91;4397923;32;20223;-65
2022/09/19 12:12:27;;;;;;;1.50;0.43;;;;;;;12.66;73.74;95726.31;4409111;32;20188;-64
2022/09/19 12:14:58;;;;;;;0.20;0.20;;;;;;;12.72;72.38;95728.56;4395360;32;20192;-65
2022/09/19 12:17:32;;;;;;;0.40;0.40;;;;;;;12.79;72.65;95725.50;4390934;32;20189;-65
2022/09/19 12:20:13;;;;;;;2.00;0.80;;;;;;;12.74;70.83;95717.63;4394868;32;20184;-65
2022/09/19 12:22:47;;;;;;;0.00;0.00;;;;;;;12.83;71.03;95715.84;4414272;32;20211;-65